Time;durP1;ratioP1;P1;durP2;ratioP2;P2;SDS_P1;SDS_P2;PMS_P1;PMS_P2;Temp;Humidity;BMP_temperature;BMP_pressure;BME280_temperature;BME280_humidity;BME280_pressure;Samples;Min_cycle;Max_cycle;Signal;HPM_P1;HPM_P2
2022/07/11 00:02:25;;;;;;;1.90;1.77;;;23.00;48.10;;;;;;5005930;28;21146;-89
2022/07/11 00:04:53;;;;;;;1.90;1.80;;;23.00;48.40;;;;;;5020139;28;20458;-89
2022/07/11 00:07:20;;;;;;;2.10;2.00;;;23.00;48.20;;;;;;5019208;28;20957;-90
2022/07/11 00:09:47;;;;;;;2.10;2.00;;;23.00;48.00;;;;;;5021814;27;20451;-89
2022/07/11 00:12:14;;;;;;;2.33;2.10;;;23.10;47.80;;;;;;5020788;28;20465;-90
2022/07/11 00:14:41;;;;;;;2.10;2.00;;;23.10;48.10;;;;;;5003926;28;20494;-89
2022/07/11 00:17:09;;;;;;;2.67;2.00;;;23.00;48.10;;;;;;5003533;27;21146;-89
2022/07/11 00:19:36;;;;;;;2.53;1.87;;;23.00;48.40;;;;;;5004472;28;20866;-89
2022/07/11 00:22:06;;;;;;;2.27;2.07;;;23.00;48.50;;;;;;5017737;28;20503;-91
2022/07/11 00:24:33;;;;;;;1.87;1.77;;;23.00;48.30;;;;;;4988603;28;20547;-90
2022/07/11 00:27:00;;;;;;;2.20;1.90;;;23.20;48.30;;;;;;5018052;28;20465;-90
2022/07/11 00:29:28;;;;;;;1.90;1.80;;;23.20;48.20;;;;;;4994692;28;21022;-90
2022/07/11 00:31:56;;;;;;;1.90;1.80;;;23.20;49.10;;;;;;5019638;28;21226;-89
2022/07/11 00:34:23;;;;;;;2.40;2.20;;;23.20;48.50;;;;;;5016645;27;20447;-89
2022/07/11 00:36:50;;;;;;;1.90;1.80;;;23.20;48.30;;;;;;5017512;28;20964;-89
2022/07/11 00:39:18;;;;;;;1.63;1.53;;;23.20;48.30;;;;;;5001487;28;20866;-89
2022/07/11 00:41:46;;;;;;;1.93;1.70;;;23.20;48.00;;;;;;4998394;28;20470;-90
2022/07/11 00:44:13;;;;;;;3.40;1.80;;;23.20;48.40;;;;;;5016611;28;20458;-88
2022/07/11 00:46:40;;;;;;;1.90;1.80;;;23.20;48.60;;;;;;5021018;28;20447;-90
2022/07/11 00:49:07;;;;;;;2.10;1.90;;;23.20;48.40;;;;;;5023810;28;20473;-89
2022/07/11 00:51:35;;;;;;;1.90;1.80;;;23.20;48.70;;;;;;5000701;28;20742;-90
2022/07/11 00:54:02;;;;;;;1.77;1.60;;;22.90;49.00;;;;;;4989618;28;20526;-89
2022/07/11 00:56:31;;;;;;;2.23;1.70;;;22.90;49.20;;;;;;5017049;28;20454;-91
2022/07/11 00:58:59;;;;;;;1.60;1.50;;;22.90;49.20;;;;;;5017429;28;20477;-89
2022/07/11 01:01:26;;;;;;;1.87;1.77;;;22.90;49.20;;;;;;5002312;28;20481;-90
2022/07/11 01:03:54;;;;;;;2.27;2.17;;;22.90;49.30;;;;;;5007993;28;20448;-88
2022/07/11 01:06:21;;;;;;;2.10;2.00;;;22.90;49.10;;;;;;5020089;28;20974;-89
2022/07/11 01:08:48;;;;;;;2.00;1.90;;;22.90;49.30;;;;;;5018734;28;20504;-88
2022/07/11 01:11:17;;;;;;;2.00;1.90;;;22.90;49.70;;;;;;5020190;28;20461;-90
2022/07/11 01:13:46;;;;;;;2.10;2.00;;;22.70;50.20;;;;;;5003704;28;20552;-89
2022/07/11 01:16:15;;;;;;;1.93;1.83;;;22.70;50.00;;;;;;5020545;28;20466;-88
2022/07/11 01:18:43;;;;;;;2.00;1.90;;;22.70;50.20;;;;;;5004935;28;20485;-89
2022/07/11 01:21:29;;;;;;;2.10;2.00;;;22.80;50.10;;;;;;5029266;27;20478;-89
2022/07/11 01:23:59;;;;;;;2.50;2.30;;;22.70;50.20;;;;;;4996650;28;21101;-88
2022/07/11 01:26:27;;;;;;;3.90;1.90;;;22.70;50.20;;;;;;5022345;28;20453;-89
2022/07/11 01:28:56;;;;;;;2.20;2.00;;;22.70;50.10;;;;;;5024461;27;20478;-89
2022/07/11 01:31:24;;;;;;;3.47;2.00;;;22.70;50.00;;;;;;5029357;27;20469;-88
2022/07/11 01:33:51;;;;;;;4.40;2.07;;;22.70;50.10;;;;;;4995716;28;21024;-88
2022/07/11 01:36:18;;;;;;;1.80;1.70;;;22.80;50.30;;;;;;5007003;28;20499;-90
2022/07/11 01:38:45;;;;;;;2.73;2.53;;;22.80;50.20;;;;;;5011406;28;20484;-89
2022/07/11 01:41:13;;;;;;;2.30;2.20;;;22.80;50.20;;;;;;5021939;27;20458;-88
2022/07/11 01:43:40;;;;;;;1.83;1.70;;;22.90;50.20;;;;;;5032845;27;20453;-89
2022/07/11 01:46:07;;;;;;;2.97;2.10;;;22.80;50.20;;;;;;5006428;28;21139;-90
2022/07/11 01:48:34;;;;;;;2.40;2.20;;;22.90;50.10;;;;;;5013245;28;20570;-88
2022/07/11 01:51:02;;;;;;;2.20;2.00;;;22.90;50.20;;;;;;5006213;28;20500;-89
2022/07/11 01:53:29;;;;;;;4.33;2.17;;;22.90;49.90;;;;;;5021060;28;20485;-88
2022/07/11 01:55:56;;;;;;;2.87;2.20;;;23.00;50.00;;;;;;4993161;28;20535;-90
2022/07/11 01:58:24;;;;;;;2.23;2.07;;;22.90;50.20;;;;;;5021659;27;20480;-89
2022/07/11 02:00:51;;;;;;;2.40;2.20;;;22.80;50.20;;;;;;5027130;27;20471;-89
2022/07/11 02:03:18;;;;;;;3.10;2.10;;;22.80;50.30;;;;;;4996188;28;20464;-90
2022/07/11 02:05:45;;;;;;;2.50;2.30;;;22.90;50.40;;;;;;5018841;28;20942;-87
2022/07/11 02:08:13;;;;;;;2.03;1.93;;;22.90;50.10;;;;;;4987199;28;21158;-89
2022/07/11 02:10:41;;;;;;;1.93;1.73;;;22.90;50.10;;;;;;5022181;28;20443;-88
2022/07/11 02:13:09;;;;;;;2.27;2.07;;;22.90;50.10;;;;;;5088675;27;20985;-88
2022/07/11 02:15:38;;;;;;;2.60;2.40;;;22.80;50.30;;;;;;5020916;28;20461;-89
2022/07/11 02:18:06;;;;;;;2.40;2.20;;;22.80;50.40;;;;;;5020186;27;20466;-89
2022/07/11 02:20:33;;;;;;;2.63;2.43;;;22.70;50.40;;;;;;5021837;28;20457;-90
2022/07/11 02:23:00;;;;;;;3.90;2.90;;;22.70;50.60;;;;;;5004274;28;20453;-88
2022/07/11 02:25:27;;;;;;;2.50;2.30;;;22.70;50.80;;;;;;5019956;28;20439;-90
2022/07/11 02:27:54;;;;;;;2.30;2.10;;;22.70;51.00;;;;;;5022069;28;20478;-88
2022/07/11 02:30:21;;;;;;;2.57;2.37;;;22.70;50.90;;;;;;5021144;28;21033;-90
2022/07/11 02:32:51;;;;;;;2.47;2.27;;;22.70;50.90;;;;;;5004155;28;20455;-89
2022/07/11 02:35:18;;;;;;;2.70;2.50;;;22.70;50.90;;;;;;5021350;28;21005;-88
2022/07/11 02:37:45;;;;;;;2.60;2.40;;;22.80;50.50;;;;;;5021030;28;21137;-88
2022/07/11 02:40:12;;;;;;;2.43;2.23;;;22.70;50.80;;;;;;5020063;27;20908;-88
2022/07/11 02:42:39;;;;;;;2.50;2.30;;;22.70;50.90;;;;;;5009980;27;20467;-89
2022/07/11 02:45:07;;;;;;;3.40;3.10;;;22.70;50.80;;;;;;5002802;28;20535;-89
2022/07/11 02:47:36;;;;;;;2.40;2.20;;;22.70;50.80;;;;;;5024390;27;20477;-89
2022/07/11 02:50:06;;;;;;;2.30;2.10;;;22.70;50.80;;;;;;5003173;28;20525;-88
2022/07/11 02:52:32;;;;;;;2.40;2.30;;;22.70;50.70;;;;;;5022895;27;20435;-89
2022/07/11 02:54:59;;;;;;;3.40;2.57;;;22.70;50.80;;;;;;5024918;28;20442;-89
2022/07/11 02:57:27;;;;;;;2.33;2.23;;;22.70;50.80;;;;;;5006056;28;20462;-90
2022/07/11 02:59:53;;;;;;;2.70;2.50;;;22.70;50.90;;;;;;5021136;28;20442;-90
2022/07/11 03:02:21;;;;;;;2.80;2.40;;;22.70;51.10;;;;;;5005335;28;20478;-90
2022/07/11 03:04:48;;;;;;;3.03;2.73;;;22.70;51.00;;;;;;5019227;28;20438;-88
2022/07/11 03:07:17;;;;;;;2.57;2.37;;;22.70;51.00;;;;;;5020368;28;20950;-90
2022/07/11 03:09:44;;;;;;;2.77;2.57;;;22.70;50.80;;;;;;5022794;27;20459;-88
2022/07/11 03:12:11;;;;;;;2.60;2.40;;;22.70;50.90;;;;;;5022573;28;21010;-88
2022/07/11 03:14:38;;;;;;;2.40;2.30;;;22.70;50.90;;;;;;5008701;28;20459;-89
2022/07/11 03:17:05;;;;;;;2.70;2.50;;;22.70;50.90;;;;;;5005427;28;20878;-89
2022/07/11 03:19:32;;;;;;;2.80;2.60;;;22.80;51.00;;;;;;5005265;28;20466;-88
2022/07/11 03:21:59;;;;;;;2.70;2.50;;;22.80;50.90;;;;;;5004289;28;20459;-89
2022/07/11 03:24:36;;;;;;;2.93;2.73;;;22.80;51.00;;;;;;4990585;28;21114;-91
2022/07/11 03:27:04;;;;;;;3.00;2.30;;;22.70;50.80;;;;;;5016458;27;20435;-89
2022/07/11 03:29:31;;;;;;;2.70;2.50;;;22.70;51.00;;;;;;5024871;27;20465;-89
2022/07/11 03:31:58;;;;;;;2.80;2.60;;;22.70;51.00;;;;;;5021422;27;20534;-90
2022/07/11 03:34:26;;;;;;;2.13;1.90;;;22.60;51.20;;;;;;4994327;28;20996;-90
2022/07/11 03:36:53;;;;;;;2.60;2.33;;;22.70;51.20;;;;;;5019087;28;20851;-89
2022/07/11 03:39:21;;;;;;;4.20;2.03;;;22.60;51.20;;;;;;5019557;27;21015;-89
2022/07/11 03:41:50;;;;;;;2.70;2.50;;;22.60;51.20;;;;;;5017321;28;20985;-89
2022/07/11 03:44:17;;;;;;;2.97;2.77;;;22.60;51.30;;;;;;4984949;28;20554;-89
2022/07/11 03:46:44;;;;;;;3.60;2.50;;;22.50;51.30;;;;;;5006771;27;20449;-89
2022/07/11 03:49:11;;;;;;;2.70;2.50;;;22.60;51.50;;;;;;5019626;28;20470;-89
2022/07/11 03:51:38;;;;;;;2.97;2.67;;;22.60;51.40;;;;;;5092164;27;20481;-90
2022/07/11 03:54:05;;;;;;;2.67;2.47;;;22.60;51.80;;;;;;5024058;27;21073;-89
2022/07/11 03:56:32;;;;;;;2.50;2.30;;;22.60;51.30;;;;;;5022778;28;20482;-89
2022/07/11 03:59:01;;;;;;;2.80;2.60;;;22.50;51.30;;;;;;5025779;27;20476;-89
2022/07/11 04:01:28;;;;;;;2.43;2.23;;;22.60;51.40;;;;;;5024904;27;20466;-91
2022/07/11 04:03:55;;;;;;;4.27;2.67;;;22.60;51.60;;;;;;5019057;28;20454;-89
2022/07/11 04:06:22;;;;;;;2.53;2.33;;;22.70;51.70;;;;;;4991498;28;20557;-89
2022/07/11 04:08:49;;;;;;;3.67;2.87;;;22.70;51.50;;;;;;5028933;27;20470;-89
2022/07/11 04:11:16;;;;;;;4.23;2.63;;;22.70;51.50;;;;;;5019819;28;20442;-90
2022/07/11 04:13:43;;;;;;;3.03;2.83;;;22.80;51.40;;;;;;5021017;28;20945;-89
2022/07/11 04:16:12;;;;;;;3.00;2.80;;;22.80;51.20;;;;;;5020064;28;20984;-89
2022/07/11 04:18:39;;;;;;;3.00;2.63;;;22.80;51.40;;;;;;5023116;28;20470;-88
2022/07/11 04:21:06;;;;;;;2.67;2.47;;;22.90;51.30;;;;;;5005704;27;21001;-89
2022/07/11 04:23:33;;;;;;;4.83;2.60;;;22.90;51.50;;;;;;5005309;28;20454;-89
2022/07/11 04:26:00;;;;;;;3.07;2.87;;;22.90;51.40;;;;;;5003903;28;20859;-89
2022/07/11 04:28:27;;;;;;;3.10;2.90;;;22.90;51.20;;;;;;5021392;28;20478;-89
2022/07/11 04:30:54;;;;;;;2.60;2.40;;;22.90;51.30;;;;;;5021995;28;20861;-89
2022/07/11 04:33:22;;;;;;;4.23;3.00;;;22.90;51.40;;;;;;5019853;27;20448;-89
2022/07/11 04:35:49;;;;;;;3.00;2.40;;;22.90;51.40;;;;;;5018819;28;20532;-89
2022/07/11 04:38:21;;;;;;;4.30;3.00;;;22.90;51.60;;;;;;4997632;28;20912;-89
2022/07/11 04:40:48;;;;;;;2.77;2.57;;;22.90;51.60;;;;;;4997308;28;20509;-89
2022/07/11 04:43:15;;;;;;;3.03;2.73;;;23.00;51.70;;;;;;5026890;28;20558;-89
2022/07/11 04:45:42;;;;;;;2.80;2.60;;;23.00;51.50;;;;;;5007377;28;20462;-89
2022/07/11 04:48:09;;;;;;;3.03;2.83;;;23.00;51.60;;;;;;5030214;28;20845;-89
2022/07/11 04:50:38;;;;;;;3.00;2.80;;;23.00;51.80;;;;;;5020917;28;20461;-90
2022/07/11 04:53:05;;;;;;;3.60;2.93;;;23.00;51.70;;;;;;5022962;28;20510;-89
2022/07/11 04:55:32;;;;;;;3.43;3.13;;;22.90;51.50;;;;;;5021971;28;20457;-89
2022/07/11 04:57:59;;;;;;;3.23;2.80;;;22.80;51.60;;;;;;5019219;28;20470;-89
2022/07/11 05:00:26;;;;;;;3.00;2.80;;;22.80;51.50;;;;;;5025462;28;21036;-89
2022/07/11 05:02:55;;;;;;;3.30;3.00;;;22.80;51.80;;;;;;5004998;28;20489;-90
2022/07/11 05:05:23;;;;;;;6.70;3.03;;;22.70;51.80;;;;;;5018283;28;20450;-89
2022/07/11 05:07:52;;;;;;;3.50;3.20;;;22.70;51.90;;;;;;5025536;28;20461;-88
2022/07/11 05:10:19;;;;;;;2.97;2.70;;;22.80;52.00;;;;;;5002532;28;21039;-88
2022/07/11 05:12:46;;;;;;;3.23;3.03;;;22.90;51.70;;;;;;5018905;28;20484;-87
2022/07/11 05:15:13;;;;;;;3.40;2.97;;;22.90;51.50;;;;;;5019282;28;20478;-87
2022/07/11 05:17:40;;;;;;;3.93;3.67;;;22.70;51.60;;;;;;5017593;28;20501;-89
2022/07/11 05:20:08;;;;;;;3.60;3.30;;;22.80;51.60;;;;;;5018021;28;21003;-89
2022/07/11 05:22:35;;;;;;;3.30;3.00;;;22.70;51.80;;;;;;4994293;28;20467;-89
2022/07/11 05:25:04;;;;;;;3.50;3.30;;;22.60;51.80;;;;;;5070077;28;21022;-90
2022/07/11 05:27:31;;;;;;;3.70;3.40;;;22.60;52.20;;;;;;5021588;28;20479;-88
2022/07/11 05:29:58;;;;;;;4.33;3.70;;;22.60;52.20;;;;;;5023380;28;20458;-92
2022/07/11 05:32:25;;;;;;;5.83;3.60;;;22.60;52.10;;;;;;5004900;28;21005;-89
2022/07/11 05:34:52;;;;;;;4.50;3.50;;;22.40;52.50;;;;;;4989436;28;20451;-89
2022/07/11 05:37:19;;;;;;;3.77;3.53;;;22.40;52.80;;;;;;5018420;28;20450;-89
2022/07/11 05:39:45;;;;;;;3.70;3.40;;;22.40;52.50;;;;;;5019857;28;20447;-88
2022/07/11 05:42:14;;;;;;;3.53;3.23;;;22.40;52.70;;;;;;4997446;28;21035;-89
2022/07/11 05:44:41;;;;;;;4.00;3.43;;;22.50;52.80;;;;;;4989598;28;20458;-89
2022/07/11 05:47:08;;;;;;;4.10;3.73;;;22.60;52.30;;;;;;5013924;28;21049;-89
2022/07/11 05:49:35;;;;;;;3.80;3.50;;;22.70;52.30;;;;;;4987668;28;20537;-90
2022/07/11 05:52:02;;;;;;;5.17;3.87;;;22.80;52.20;;;;;;4997331;28;20538;-88
2022/07/11 05:54:29;;;;;;;3.17;2.97;;;22.90;51.90;;;;;;5017142;28;20482;-90
2022/07/11 05:56:58;;;;;;;3.90;3.60;;;22.90;51.60;;;;;;4994320;28;21183;-89
2022/07/11 05:59:26;;;;;;;5.27;4.87;;;23.00;51.60;;;;;;5009511;28;21386;-91
2022/07/11 06:01:53;;;;;;;4.27;3.97;;;23.00;51.50;;;;;;5010892;27;20481;-91
2022/07/11 06:04:20;;;;;;;7.30;3.97;;;22.90;51.50;;;;;;5016410;28;20931;-90
2022/07/11 06:06:47;;;;;;;4.50;4.10;;;22.90;51.90;;;;;;5019250;27;21006;-90
2022/07/11 06:09:14;;;;;;;4.20;3.90;;;22.80;51.80;;;;;;5017826;28;20485;-88
2022/07/11 06:11:42;;;;;;;5.10;4.60;;;22.80;51.90;;;;;;4984407;28;20569;-92
2022/07/11 06:14:09;;;;;;;4.33;4.03;;;22.70;52.20;;;;;;5005751;27;20531;-89
2022/07/11 06:16:38;;;;;;;4.90;4.50;;;22.80;52.00;;;;;;5020789;28;20967;-89
2022/07/11 06:19:05;;;;;;;4.50;4.20;;;22.90;51.90;;;;;;5017780;27;20469;-86
2022/07/11 06:21:33;;;;;;;6.10;4.27;;;23.00;52.00;;;;;;5018299;28;20451;-90
2022/07/11 06:24:00;;;;;;;5.20;4.70;;;22.70;51.70;;;;;;5005078;28;20476;-88
2022/07/11 06:26:27;;;;;;;5.00;3.90;;;22.80;52.00;;;;;;5021092;27;20528;-90
2022/07/11 06:28:55;;;;;;;4.83;4.10;;;22.90;51.90;;;;;;5021373;28;20531;-89
2022/07/11 06:31:22;;;;;;;6.83;5.20;;;23.10;51.70;;;;;;4994910;28;20450;-89
2022/07/11 06:33:54;;;;;;;5.10;4.60;;;22.90;51.60;;;;;;5002521;28;20470;-89
2022/07/11 06:36:22;;;;;;;5.00;4.00;;;23.00;51.60;;;;;;5000987;28;20449;-88
2022/07/11 06:38:50;;;;;;;9.30;4.70;;;23.00;51.40;;;;;;5011467;27;20585;-86
2022/07/11 06:41:17;;;;;;;4.47;4.07;;;23.20;51.60;;;;;;5016217;27;20492;-89
2022/07/11 06:43:47;;;;;;;4.40;4.10;;;23.30;51.20;;;;;;5004935;28;20466;-90
2022/07/11 06:46:14;;;;;;;4.60;3.90;;;23.30;51.10;;;;;;5003660;27;20454;-88
2022/07/11 06:48:41;;;;;;;7.67;4.00;;;23.30;51.20;;;;;;5019988;28;20484;-89
2022/07/11 06:51:10;;;;;;;4.93;4.53;;;23.50;51.00;;;;;;5018663;27;20810;-90
2022/07/11 06:53:37;;;;;;;6.80;4.37;;;23.30;50.90;;;;;;5020362;28;20457;-90
2022/07/11 06:56:04;;;;;;;8.10;4.80;;;23.30;50.90;;;;;;5019471;27;20740;-90
2022/07/11 06:58:34;;;;;;;4.10;3.70;;;23.30;51.10;;;;;;5021691;28;20474;-88
2022/07/11 07:01:03;;;;;;;4.50;4.07;;;23.40;51.00;;;;;;5018793;27;20447;-90
2022/07/11 07:03:30;;;;;;;4.57;4.17;;;23.40;51.00;;;;;;4985530;28;21004;-89
2022/07/11 07:05:58;;;;;;;4.57;4.03;;;23.50;50.90;;;;;;4998963;28;20442;-88
2022/07/11 07:08:28;;;;;;;4.73;4.33;;;23.30;50.80;;;;;;5018157;28;21083;-88
2022/07/11 07:10:55;;;;;;;3.93;3.53;;;23.40;51.10;;;;;;4984070;28;20462;-88
2022/07/11 07:13:25;;;;;;;5.60;5.10;;;23.50;50.70;;;;;;5084613;27;20980;-89
2022/07/11 07:15:52;;;;;;;4.43;4.03;;;23.50;50.60;;;;;;5001852;28;20469;-88
2022/07/11 07:18:20;;;;;;;5.00;4.47;;;23.40;51.30;;;;;;4984143;28;20466;-90
2022/07/11 07:20:47;;;;;;;4.37;3.97;;;23.20;51.30;;;;;;4991138;28;20458;-89
2022/07/11 07:23:15;;;;;;;6.00;5.20;;;23.10;51.70;;;;;;5001670;28;20475;-88
2022/07/11 07:25:44;;;;;;;6.30;5.40;;;23.00;51.80;;;;;;5016813;28;21054;-87
2022/07/11 07:28:11;;;;;;;7.37;4.97;;;23.10;51.40;;;;;;5018668;28;20581;-87
2022/07/11 07:30:38;;;;;;;5.80;5.10;;;23.30;51.40;;;;;;5102394;27;21057;-88
2022/07/11 07:33:05;;;;;;;6.63;5.23;;;23.40;50.90;;;;;;4990782;28;20466;-86
2022/07/11 07:35:32;;;;;;;6.40;5.20;;;23.20;51.00;;;;;;5020109;28;20462;-87
2022/07/11 07:38:00;;;;;;;6.63;5.50;;;23.00;51.20;;;;;;5025823;27;20853;-91
2022/07/11 07:40:27;;;;;;;6.10;5.27;;;22.80;51.80;;;;;;4986554;28;20454;-88
2022/07/11 07:42:56;;;;;;;6.33;4.67;;;22.90;52.30;;;;;;5018463;28;20502;-89
2022/07/11 07:45:24;;;;;;;15.40;5.93;;;23.00;51.60;;;;;;5020003;28;21115;-86
2022/07/11 07:47:51;;;;;;;5.80;5.30;;;23.30;51.10;;;;;;5018925;27;21034;-88
2022/07/11 07:50:18;;;;;;;6.00;5.20;;;23.40;51.00;;;;;;5017569;28;20454;-89
2022/07/11 07:52:44;;;;;;;6.80;5.63;;;23.40;51.00;;;;;;5000022;28;20443;-87
2022/07/11 07:55:12;;;;;;;6.80;6.07;;;23.40;51.00;;;;;;5018088;28;21147;-87
2022/07/11 07:57:39;;;;;;;8.17;5.70;;;23.50;50.60;;;;;;5019231;28;20463;-87
2022/07/11 08:02:53;;;;;;;6.03;5.03;;;23.60;50.10;;;;;;5013795;28;20474;-89
2022/07/11 08:05:20;;;;;;;6.23;5.63;;;23.70;49.90;;;;;;5016280;28;20471;-90
2022/07/11 08:07:47;;;;;;;5.80;5.20;;;23.80;50.20;;;;;;4983102;27;20496;-88
2022/07/11 08:10:15;;;;;;;6.07;5.47;;;23.90;49.50;;;;;;5006098;28;20458;-88
2022/07/11 08:12:42;;;;;;;5.63;4.90;;;23.70;50.20;;;;;;5017748;27;20442;-90
2022/07/11 08:15:11;;;;;;;7.73;5.10;;;23.90;49.70;;;;;;5019438;27;20466;-89
2022/07/11 08:17:38;;;;;;;7.70;5.37;;;23.80;49.50;;;;;;5018351;28;20472;-89
2022/07/11 08:20:06;;;;;;;6.03;5.43;;;23.80;49.50;;;;;;5015708;28;20451;-89
2022/07/11 08:22:33;;;;;;;9.73;5.20;;;23.80;49.20;;;;;;5011784;28;20477;-88
2022/07/11 08:25:00;;;;;;;5.70;5.10;;;23.90;49.70;;;;;;5015871;28;20455;-89
2022/07/11 08:27:27;;;;;;;5.63;5.07;;;24.00;49.30;;;;;;5004588;28;20467;-89
2022/07/11 08:29:54;;;;;;;5.93;5.37;;;24.00;49.30;;;;;;5022164;28;20466;-87
2022/07/11 08:32:24;;;;;;;8.23;5.50;;;24.10;48.50;;;;;;5020534;28;20454;-88
2022/07/11 08:34:51;;;;;;;5.30;4.83;;;24.20;48.80;;;;;;5019907;28;21054;-89
2022/07/11 08:37:18;;;;;;;6.00;4.70;;;24.30;48.50;;;;;;5002967;28;20535;-87
2022/07/11 08:39:45;;;;;;;6.20;5.13;;;24.30;48.60;;;;;;5020116;28;20458;-88
2022/07/11 08:42:12;;;;;;;6.33;5.40;;;24.30;48.90;;;;;;5019088;27;20447;-88
2022/07/11 08:44:39;;;;;;;7.17;5.60;;;24.30;48.20;;;;;;5015797;28;20499;-88
2022/07/11 08:47:07;;;;;;;5.80;5.30;;;24.50;48.30;;;;;;5019037;28;20460;-88
2022/07/11 08:49:35;;;;;;;5.20;4.70;;;24.60;48.20;;;;;;5024143;28;20470;-86
2022/07/11 08:52:03;;;;;;;5.90;5.30;;;24.50;48.70;;;;;;5018453;28;20470;-90
2022/07/11 08:54:30;;;;;;;6.20;5.47;;;24.40;48.60;;;;;;5019546;28;20761;-88
2022/07/11 08:56:58;;;;;;;5.33;4.77;;;24.50;48.00;;;;;;5020447;28;20451;-88
2022/07/11 08:59:28;;;;;;;5.13;4.63;;;24.50;48.10;;;;;;5017502;28;20468;-87
2022/07/11 09:01:58;;;;;;;5.10;4.67;;;24.30;48.60;;;;;;5019534;28;20877;-88
2022/07/11 09:04:27;;;;;;;6.10;5.20;;;24.30;48.10;;;;;;5019513;28;20942;-88
2022/07/11 09:06:56;;;;;;;5.50;4.43;;;24.30;48.20;;;;;;5000335;28;20553;-86
2022/07/11 09:09:23;;;;;;;4.63;4.23;;;24.30;48.40;;;;;;5018108;28;20463;-88
2022/07/11 09:11:52;;;;;;;5.27;4.13;;;24.30;48.30;;;;;;5017987;28;20529;-89
2022/07/11 09:14:23;;;;;;;4.03;3.40;;;24.50;47.90;;;;;;5018683;28;20463;-88
2022/07/11 09:16:55;;;;;;;5.40;3.80;;;24.70;47.90;;;;;;5019740;28;20535;-88
2022/07/11 09:19:23;;;;;;;4.07;3.77;;;24.90;47.30;;;;;;5016714;28;20510;-88
2022/07/11 09:27:45;;;;;;;4.43;3.40;;;25.10;46.70;;;;;;5017985;28;20484;-88
2022/07/11 09:30:21;;;;;;;4.40;3.50;;;25.20;47.10;;;;;;5019586;28;20474;-90
2022/07/11 09:32:59;;;;;;;3.80;3.50;;;25.30;46.10;;;;;;4992200;28;20897;-87
2022/07/11 09:35:30;;;;;;;4.57;3.20;;;25.40;45.80;;;;;;5038033;27;20439;-88
2022/07/11 09:37:58;;;;;;;3.87;3.50;;;25.30;45.90;;;;;;5021497;28;20550;-89
2022/07/11 09:40:26;;;;;;;3.03;2.83;;;25.40;45.20;;;;;;5019576;27;20571;-89
2022/07/11 09:42:54;;;;;;;3.47;3.27;;;25.50;45.30;;;;;;5021977;27;20951;-90
2022/07/11 09:45:25;;;;;;;3.20;2.43;;;25.40;45.30;;;;;;5025071;27;20545;-87
2022/07/11 09:47:54;;;;;;;2.50;2.30;;;25.00;45.30;;;;;;5035669;27;20474;-87
2022/07/11 09:50:22;;;;;;;3.67;3.17;;;25.10;45.70;;;;;;5025947;27;21012;-89
2022/07/11 09:53:02;;;;;;;2.60;2.40;;;25.10;45.10;;;;;;5019950;28;21185;-90
2022/07/11 09:55:30;;;;;;;2.77;2.57;;;25.00;45.60;;;;;;5026183;27;21053;-88
2022/07/11 09:57:57;;;;;;;2.67;2.47;;;25.10;45.20;;;;;;5022326;27;20501;-88
2022/07/11 10:00:24;;;;;;;3.20;2.87;;;25.00;45.60;;;;;;5022150;28;20450;-88
2022/07/11 10:02:52;;;;;;;3.60;3.40;;;25.10;46.40;;;;;;5003862;28;20446;-88
2022/07/11 10:05:19;;;;;;;4.37;3.10;;;25.30;45.80;;;;;;5020039;28;20454;-88
2022/07/11 10:07:46;;;;;;;6.63;3.23;;;25.30;45.50;;;;;;5023405;28;20527;-88
2022/07/11 10:10:14;;;;;;;3.00;2.80;;;25.50;45.50;;;;;;5006376;28;20519;-88
2022/07/11 10:12:42;;;;;;;3.50;2.70;;;25.50;45.40;;;;;;5021411;28;20635;-89
2022/07/11 10:15:10;;;;;;;3.03;2.83;;;25.40;45.30;;;;;;5023680;28;20493;-88
2022/07/11 10:17:47;;;;;;;4.47;3.23;;;25.30;45.50;;;;;;5021628;28;20478;-88
2022/07/11 10:20:23;;;;;;;3.53;3.23;;;25.40;45.90;;;;;;5004123;28;20466;-88
2022/07/11 10:22:57;;;;;;;3.47;3.17;;;25.50;45.90;;;;;;5020940;28;20454;-88
2022/07/11 10:25:34;;;;;;;3.70;3.30;;;25.40;45.90;;;;;;4989985;28;20453;-88
2022/07/11 10:28:10;;;;;;;4.17;2.60;;;25.30;45.80;;;;;;5025450;27;20482;-90
2022/07/11 10:30:43;;;;;;;4.87;3.10;;;25.40;45.80;;;;;;5011492;27;20455;-88
2022/07/11 10:33:10;;;;;;;3.23;3.03;;;25.40;45.80;;;;;;5021402;28;20454;-88
2022/07/11 10:35:41;;;;;;;3.00;2.80;;;25.50;45.60;;;;;;5021977;28;20450;-88
2022/07/11 10:38:08;;;;;;;3.50;3.20;;;25.50;45.50;;;;;;5021945;27;20519;-88
2022/07/11 10:40:45;;;;;;;5.43;2.97;;;25.60;45.60;;;;;;5003558;28;21386;-89
2022/07/11 10:43:12;;;;;;;3.43;3.13;;;25.60;45.60;;;;;;4986328;28;21120;-88
2022/07/11 10:45:59;;;;;;;5.13;3.33;;;25.20;46.10;;;;;;5019711;27;20525;-87
2022/07/11 10:48:28;;;;;;;3.20;2.90;;;25.00;46.50;;;;;;5107967;27;20997;-88
2022/07/11 10:51:15;;;;;;;5.63;2.93;;;24.90;47.60;;;;;;5018810;27;20462;-88
2022/07/11 10:53:47;;;;;;;4.30;3.63;;;25.00;47.30;;;;;;5020111;27;20453;-87
2022/07/11 10:56:44;;;;;;;8.93;4.03;;;25.20;47.10;;;;;;5019512;28;20454;-88
2022/07/11 10:59:15;;;;;;;2.70;2.50;;;25.30;46.50;;;;;;5000120;28;20580;-88
2022/07/11 11:02:02;;;;;;;4.30;3.23;;;25.50;46.20;;;;;;5019154;28;20463;-88
2022/07/11 11:04:49;;;;;;;4.27;3.60;;;25.40;45.70;;;;;;5014155;27;20462;-88
2022/07/11 11:07:36;;;;;;;5.20;4.70;;;25.20;46.10;;;;;;5018836;28;20461;-88
2022/07/11 11:10:07;;;;;;;3.43;3.13;;;25.20;46.40;;;;;;5036406;27;20460;-87
2022/07/11 11:13:14;;;;;;;3.40;3.10;;;25.20;46.80;;;;;;5021036;28;20447;-87
2022/07/11 11:15:44;;;;;;;5.50;3.20;;;25.50;46.30;;;;;;5020279;27;20495;-87
2022/07/11 11:18:37;;;;;;;6.73;3.00;;;25.70;45.90;;;;;;5022601;28;20469;-88
2022/07/11 11:21:21;;;;;;;4.40;3.20;;;25.80;45.30;;;;;;5020085;28;20451;-90
2022/07/11 11:24:03;;;;;;;3.40;2.73;;;25.90;44.80;;;;;;5009408;28;21232;-88
2022/07/11 11:26:48;;;;;;;6.13;3.40;;;26.00;44.60;;;;;;5020456;28;21225;-88
2022/07/11 11:29:21;;;;;;;6.87;3.20;;;26.10;44.80;;;;;;5017117;27;20462;-89
2022/07/11 11:31:54;;;;;;;3.47;3.17;;;26.40;45.10;;;;;;5021502;28;20829;-89
2022/07/11 11:34:21;;;;;;;3.50;3.10;;;26.60;44.00;;;;;;5019901;28;20443;-88
2022/07/11 11:37:01;;;;;;;4.60;2.63;;;26.80;44.10;;;;;;5003016;28;20454;-88
2022/07/11 11:39:34;;;;;;;3.67;3.30;;;27.10;43.40;;;;;;5018007;27;20599;-87
2022/07/11 11:42:09;;;;;;;5.67;3.43;;;27.30;43.00;;;;;;5021738;27;20454;-88
2022/07/11 11:44:51;;;;;;;5.63;2.87;;;27.40;42.50;;;;;;5021439;27;20934;-88
2022/07/11 11:47:18;;;;;;;4.70;2.90;;;27.40;42.60;;;;;;5020458;28;20466;-88
2022/07/11 11:49:46;;;;;;;3.83;3.00;;;27.40;43.50;;;;;;5026942;27;20455;-88
2022/07/11 11:52:14;;;;;;;3.10;2.87;;;27.40;41.30;;;;;;4985286;28;20443;-91
2022/07/11 11:54:41;;;;;;;4.90;3.07;;;27.40;42.00;;;;;;5019797;28;20991;-89
2022/07/11 11:57:10;;;;;;;3.33;3.03;;;27.40;42.30;;;;;;5023475;27;20450;-88
2022/07/11 11:59:39;;;;;;;2.63;2.43;;;27.60;42.20;;;;;;5021554;27;20494;-88
2022/07/11 12:02:07;;;;;;;2.83;2.63;;;27.60;41.30;;;;;;5020810;28;20466;-88
2022/07/11 12:04:36;;;;;;;2.93;2.73;;;27.70;41.30;;;;;;5022132;28;20478;-88
2022/07/11 12:07:05;;;;;;;2.83;2.63;;;27.60;41.70;;;;;;5020125;28;20527;-90
2022/07/11 12:09:49;;;;;;;4.00;3.23;;;27.70;41.70;;;;;;5021911;28;20554;-88
2022/07/11 12:15:06;;;;;;;2.70;2.50;;;27.70;41.10;;;;;;5018623;28;20851;-88
2022/07/11 12:17:33;;;;;;;6.40;2.67;;;27.80;41.50;;;;;;5002547;28;20501;-88
2022/07/11 12:20:01;;;;;;;3.20;2.80;;;27.60;40.90;;;;;;5003261;28;20551;-88
2022/07/11 12:22:28;;;;;;;4.70;2.30;;;27.70;41.30;;;;;;5019232;27;20534;-87
2022/07/11 12:24:55;;;;;;;6.43;2.77;;;27.60;41.30;;;;;;5023318;28;20466;-90
2022/07/11 12:27:25;;;;;;;2.63;2.30;;;27.60;41.50;;;;;;5024914;27;20457;-88
2022/07/11 12:29:53;;;;;;;3.70;3.00;;;27.50;41.30;;;;;;5026724;28;20450;-87
2022/07/11 12:32:22;;;;;;;5.83;3.17;;;27.30;41.00;;;;;;5018998;28;20455;-88
2022/07/11 12:34:50;;;;;;;3.37;3.07;;;26.90;42.70;;;;;;5002770;28;20451;-89
2022/07/11 12:37:19;;;;;;;2.80;2.60;;;26.70;43.30;;;;;;5020561;27;20522;-90
2022/07/11 12:39:51;;;;;;;2.97;2.70;;;26.60;43.60;;;;;;4992163;28;21105;-88
2022/07/11 12:42:24;;;;;;;2.40;2.27;;;26.60;43.40;;;;;;5017515;28;20459;-90
2022/07/11 12:45:07;;;;;;;2.43;2.20;;;26.50;43.70;;;;;;5022042;27;20468;-88
2022/07/11 12:47:38;;;;;;;3.30;2.43;;;26.40;44.20;;;;;;5001578;28;20470;-86
2022/07/11 12:50:12;;;;;;;4.33;2.80;;;26.70;44.20;;;;;;5005763;28;20497;-89
2022/07/11 12:52:41;;;;;;;2.90;2.70;;;26.80;44.20;;;;;;5021044;28;20451;-88
2022/07/11 12:55:11;;;;;;;2.70;2.50;;;27.10;43.30;;;;;;5019274;28;20451;-88
2022/07/11 12:57:38;;;;;;;2.53;2.33;;;27.20;42.10;;;;;;5017515;28;20961;-88
2022/07/11 13:00:16;;;;;;;2.50;2.30;;;27.30;42.30;;;;;;5020335;28;21192;-88
2022/07/11 13:02:49;;;;;;;2.67;2.47;;;27.30;42.10;;;;;;5019228;28;20814;-87
2022/07/11 13:05:16;;;;;;;2.50;2.30;;;27.20;41.40;;;;;;5016071;28;20559;-90
2022/07/11 13:10:50;;;;;;;2.50;2.30;;;27.30;41.60;;;;;;5022671;28;20445;-88
2022/07/11 13:13:17;;;;;;;1.90;1.80;;;27.20;42.00;;;;;;5007768;28;20553;-89